メインページ
METAR-TAF:

METAR-TAF

空港 :

ミネアポリス, ミネソタ州, アメリカ合衆国

ミネアポリス・セントポール国際空港

緯度: 44-52-59N, 経度: 093-13-44W, 海抜: 256m

現時点の気象観測

当レポートは51分前の18:53(UTC)に作成
東/北東の風 14kt
気温 6°C
湿度 65%
気圧 1020 hPa
視程: 16.1km
高度1800ftの曇り

METAR: KMSP 251853Z 06014KT 10SM OVC018 06/00 A3012 RMK AO2 SLP208 T00560000

時間: 14:44 (19:44 UTC)

予報

当レポートは2時間8分前の17:36(UTC)に作成
予報は25日の 18時(UTC)から 26日の 24時(UTC)まで有効
東/北東の風 12kt、最大18ktの突風を伴う
視程: 10km
高度1800ftの曇り
26日の 0000時(UTC)から
東/北東の風 10kt
視程: 10km
高度2000ftの曇り
26日の 0500時(UTC)から
北東の風 7kt
視程: 9.7km
高度1200ftの曇り
小雨, 靄
26日の 0800時(UTC)から
北/北東の風 7kt
視程: 6.4km
高度500ftの雲は散在している
高度700ftの曇り
小霧雨, 靄
26日の 1500時(UTC)から
北/北東の風 6kt
視程: 10km
高度1500ftの曇り

TAF: KMSP 251736Z 2518/2624 07012G18KT P6SM OVC018 FM260000 06010KT P6SM OVC020 FM260500 04007KT 6SM -RA BR OVC012 FM260800 03007KT 4SM -DZ BR SCT005 OVC007 FM261500 03006KT P6SM OVC015

4,000以上の空港の気象観測と天気予報(METAR報とTAF報)

利用可能な観測所は地図上に黄色い丸と赤い丸で示す。

丸の上にカーソルを重ねると観測所名を参照できる。

次にクリックすると気象観測と天気予報を参照できる。

マップの切り替え:黒色「×」印の緑ボタンをクリックして拡大、「-」印の緑ボタンをクリックして縮小、緑色の三角印をクリックして隣りの地図に切り替え


METAR-TAF: